createdAt,value
2023-05-12T00:00:15.303Z,44.79
2023-05-12T00:05:38.170Z,44.67
2023-05-12T00:10:41.415Z,44.31
2023-05-12T00:15:44.206Z,44.10
2023-05-12T00:20:47.529Z,44.47
2023-05-12T00:25:50.451Z,44.46
2023-05-12T00:30:53.366Z,44.04
2023-05-12T00:35:56.148Z,44.18
2023-05-12T00:40:58.885Z,43.85
2023-05-12T00:46:02.260Z,44.16
2023-05-12T00:51:06.211Z,44.25
2023-05-12T00:56:09.761Z,44.12
2023-05-12T01:01:12.708Z,44.49
2023-05-12T01:06:22.149Z,44.43
2023-05-12T01:11:25.073Z,45.19
2023-05-12T01:16:32.619Z,45.56
2023-05-12T01:21:35.524Z,45.09
2023-05-12T01:26:38.336Z,45.41
2023-05-12T01:31:41.434Z,45.72
2023-05-12T01:36:44.795Z,45.91
2023-05-12T01:41:47.541Z,45.85
2023-05-12T01:46:50.438Z,46.03
2023-05-12T01:51:53.361Z,46.60
2023-05-12T01:56:56.240Z,46.04
2023-05-12T02:01:59.088Z,45.85
2023-05-12T02:07:02.190Z,46.37
2023-05-12T02:12:05.603Z,46.56
2023-05-12T02:17:08.673Z,46.47
2023-05-12T02:22:11.450Z,46.27
2023-05-12T02:27:14.177Z,46.06
2023-05-12T02:32:16.986Z,46.56
2023-05-12T02:37:19.759Z,47.07
2023-05-12T02:42:22.501Z,47.13
2023-05-12T02:47:25.418Z,47.36
2023-05-12T02:52:28.323Z,47.57
2023-05-12T02:57:34.260Z,47.73
2023-05-12T03:02:38.660Z,48.11
2023-05-12T03:07:41.645Z,47.98
2023-05-12T03:12:44.580Z,47.93
2023-05-12T03:17:47.400Z,48.18
2023-05-12T03:22:50.304Z,47.91
2023-05-12T03:27:53.067Z,48.08
2023-05-12T03:32:56.264Z,48.33
2023-05-12T03:37:59.094Z,48.44
2023-05-12T03:43:01.918Z,48.43
2023-05-12T03:48:05.204Z,48.09
2023-05-12T03:53:08.035Z,47.83
2023-05-12T03:58:10.844Z,47.78
2023-05-12T04:03:13.902Z,47.98
2023-05-12T04:08:16.877Z,47.46
2023-05-12T04:13:19.664Z,47.87
2023-05-12T04:18:22.522Z,47.42
2023-05-12T04:23:25.611Z,47.29
2023-05-12T04:28:28.418Z,47.06
2023-05-12T04:33:31.473Z,46.71
2023-05-12T04:38:34.356Z,46.57
2023-05-12T04:48:44.503Z,46.91
2023-05-12T04:53:47.300Z,46.78
2023-05-12T04:58:50.087Z,46.41
2023-05-12T05:03:53.036Z,46.38
2023-05-12T05:08:56.154Z,46.24
2023-05-12T05:13:59.154Z,45.95
2023-05-12T05:19:05.824Z,45.94
2023-05-12T05:24:09.745Z,45.81
2023-05-12T05:29:12.863Z,45.48
2023-05-12T05:34:15.648Z,45.31
2023-05-12T05:39:18.487Z,45.13
2023-05-12T05:44:21.315Z,44.88
2023-05-12T05:49:24.094Z,44.84
2023-05-12T05:54:26.849Z,44.79
2023-05-12T05:59:29.688Z,44.59
2023-05-12T06:04:32.576Z,44.33
2023-05-12T06:09:35.350Z,44.24
2023-05-12T06:14:38.182Z,44.07
2023-05-12T06:19:41.090Z,44.09
2023-05-12T06:24:43.851Z,43.59
2023-05-12T06:29:46.733Z,43.26
2023-05-12T06:34:49.660Z,42.95
2023-05-12T06:39:52.513Z,43.08
2023-05-12T06:44:55.281Z,42.34
2023-05-12T06:49:58.064Z,42.16
2023-05-12T06:55:00.786Z,42.16
2023-05-12T07:00:05.065Z,41.75
2023-05-12T07:05:08.784Z,41.76
2023-05-12T07:10:11.821Z,41.25
2023-05-12T07:15:14.682Z,40.82
2023-05-12T07:20:18.152Z,39.83
2023-05-12T07:25:22.107Z,39.02
2023-05-12T07:30:25.326Z,38.06
2023-05-12T07:35:28.501Z,38.28
2023-05-12T07:40:31.376Z,37.68
2023-05-12T07:45:36.627Z,36.87
2023-05-12T07:50:39.708Z,36.60
2023-05-12T07:55:43.656Z,36.19
2023-05-12T08:00:46.524Z,35.88
2023-05-12T08:05:49.285Z,34.70
2023-05-12T08:10:52.098Z,34.64
2023-05-12T08:15:54.977Z,33.07
2023-05-12T08:20:57.897Z,32.44
2023-05-12T08:26:03.603Z,32.01
2023-05-12T08:31:06.956Z,31.54
2023-05-12T08:36:09.827Z,31.27
2023-05-12T08:41:35.417Z,29.79
2023-05-12T08:46:38.922Z,29.31
2023-05-12T08:51:42.136Z,29.30
2023-05-12T09:01:53.965Z,28.86
2023-05-12T09:06:58.308Z,28.10
2023-05-12T09:12:02.874Z,28.20
2023-05-12T09:17:05.711Z,27.34
2023-05-12T09:22:15.144Z,27.43
2023-05-12T09:27:30.463Z,27.19
2023-05-12T09:32:34.483Z,27.23
2023-05-12T09:37:37.894Z,27.02
2023-05-12T09:42:41.123Z,26.38
2023-05-12T09:47:45.639Z,26.37
2023-05-12T09:52:50.352Z,25.75
2023-05-12T09:57:53.144Z,24.85
2023-05-12T10:02:55.990Z,23.95
2023-05-12T10:07:58.843Z,23.48
2023-05-12T10:13:01.709Z,22.29
2023-05-12T10:18:07.704Z,21.07
2023-05-12T10:23:13.557Z,20.98
2023-05-12T10:28:19.073Z,19.72
2023-05-12T10:33:21.998Z,18.68
2023-05-12T10:38:25.464Z,18.20
2023-05-12T10:43:38.636Z,17.37
2023-05-12T10:49:03.418Z,16.60
2023-05-12T10:54:19.868Z,16.89
2023-05-12T10:59:27.734Z,15.99
2023-05-12T11:04:53.361Z,15.38
2023-05-12T11:10:01.034Z,15.87
2023-05-12T11:15:05.917Z,15.22
2023-05-12T11:20:12.532Z,14.26
2023-05-12T11:25:15.984Z,14.62
2023-05-12T11:30:19.867Z,14.60
2023-05-12T11:35:23.508Z,14.36
2023-05-12T11:40:26.504Z,12.60
2023-05-12T11:45:32.534Z,12.27
2023-05-12T11:50:42.858Z,13.01
2023-05-12T11:55:55.856Z,12.32
2023-05-12T12:01:12.281Z,11.33
2023-05-12T12:06:15.272Z,10.53
2023-05-12T12:11:20.675Z,10.45
2023-05-12T12:16:31.412Z,10.04
2023-05-12T12:21:35.317Z,10.48
2023-05-12T12:26:39.504Z,10.57
2023-05-12T12:31:42.641Z,9.47
2023-05-12T12:36:46.890Z,11.46
2023-05-12T12:41:49.722Z,11.54
2023-05-12T12:46:53.065Z,11.68
2023-05-12T12:51:55.954Z,10.88
2023-05-12T12:56:58.833Z,10.23
2023-05-12T13:02:02.515Z,9.68
2023-05-12T13:07:06.076Z,8.76
2023-05-12T13:12:08.920Z,8.41
2023-05-12T13:17:11.911Z,8.06
2023-05-12T13:22:14.946Z,8.25
2023-05-12T13:27:18.021Z,8.00
2023-05-12T13:32:20.939Z,7.78
2023-05-12T13:37:27.155Z,7.16
2023-05-12T13:42:30.282Z,6.84
2023-05-12T13:47:36.137Z,6.75
2023-05-12T13:52:39.157Z,6.56
2023-05-12T13:57:41.891Z,6.95
2023-05-12T14:02:45.303Z,6.57
2023-05-12T14:07:48.493Z,6.72
2023-05-12T14:12:51.345Z,6.15
2023-05-12T14:17:55.394Z,7.57
2023-05-12T14:22:58.219Z,9.92
2023-05-12T14:28:01.235Z,10.39
2023-05-12T14:33:04.823Z,10.75
2023-05-12T14:38:08.177Z,11.17
2023-05-12T14:43:11.005Z,12.04
2023-05-12T14:48:13.857Z,12.65
2023-05-12T14:53:16.676Z,14.31
2023-05-12T14:58:21.650Z,15.27
2023-05-12T15:03:24.936Z,15.92
2023-05-12T15:08:27.961Z,16.30
2023-05-12T15:13:31.104Z,16.90
2023-05-12T15:18:34.446Z,16.68
2023-05-12T15:23:37.362Z,17.01
2023-05-12T15:28:43.606Z,17.69
2023-05-12T15:33:46.483Z,18.31
2023-05-12T15:38:49.262Z,18.17
2023-05-12T15:43:52.030Z,18.43
2023-05-12T15:48:55.881Z,18.45
2023-05-12T15:53:58.673Z,18.31
2023-05-12T15:59:01.767Z,18.25
2023-05-12T16:04:04.580Z,18.16
2023-05-12T16:09:07.384Z,18.59
2023-05-12T16:14:10.110Z,19.50
2023-05-12T16:19:12.965Z,19.90
2023-05-12T16:24:15.877Z,20.99
2023-05-12T16:29:18.699Z,20.82
2023-05-12T16:34:21.588Z,21.62
2023-05-12T16:39:24.461Z,21.58
2023-05-12T16:44:27.190Z,22.15
2023-05-12T16:49:30.044Z,23.03
2023-05-12T16:54:32.914Z,23.12
2023-05-12T16:59:36.491Z,23.39
2023-05-12T17:04:39.287Z,23.36
2023-05-12T17:09:42.249Z,24.01
2023-05-12T17:14:48.024Z,24.30
2023-05-12T17:19:56.316Z,24.91
2023-05-12T17:25:12.276Z,25.28
2023-05-12T17:30:21.920Z,24.83
2023-05-12T17:35:25.248Z,25.43
2023-05-12T17:40:28.130Z,26.07
2023-05-12T17:45:31.038Z,25.92
2023-05-12T17:50:33.938Z,26.38
2023-05-12T17:55:37.163Z,26.88
2023-05-12T18:00:40.169Z,27.16
2023-05-12T18:05:43.862Z,27.72
2023-05-12T18:10:46.830Z,27.80
2023-05-12T18:15:50.159Z,28.31
2023-05-12T18:20:52.989Z,28.99
2023-05-12T18:25:56.385Z,29.75
2023-05-12T18:31:02.979Z,30.40
2023-05-12T18:36:16.480Z,31.21
2023-05-12T18:41:19.373Z,31.79
2023-05-12T18:46:22.197Z,32.51
2023-05-12T18:51:24.983Z,32.81
2023-05-12T18:56:27.857Z,33.03
2023-05-12T19:01:30.722Z,34.21
2023-05-12T19:06:33.611Z,35.16
2023-05-12T19:11:36.640Z,36.27
2023-05-12T19:16:42.444Z,36.70
2023-05-12T19:21:45.550Z,37.74
2023-05-12T19:26:48.278Z,38.21
2023-05-12T19:31:52.893Z,38.55
2023-05-12T19:36:56.288Z,39.74
2023-05-12T19:41:59.015Z,40.83
2023-05-12T19:47:04.927Z,41.95
2023-05-12T19:52:07.921Z,42.23
2023-05-12T19:57:10.790Z,43.14
2023-05-12T20:02:14.903Z,43.97
2023-05-12T20:07:17.766Z,44.05
2023-05-12T20:12:20.545Z,44.89
2023-05-12T20:17:23.445Z,45.40
2023-05-12T20:22:26.630Z,46.14
2023-05-12T20:27:31.272Z,46.42
2023-05-12T20:32:34.149Z,46.94
2023-05-12T20:37:37.475Z,47.16
2023-05-12T20:42:40.691Z,47.85
2023-05-12T20:47:43.480Z,49.10
2023-05-12T20:52:47.322Z,49.15
2023-05-12T20:57:50.054Z,49.86
2023-05-12T21:02:53.859Z,50.25
2023-05-12T21:07:56.763Z,50.11
2023-05-12T21:12:59.535Z,51.10
2023-05-12T21:18:02.381Z,51.44
2023-05-12T21:23:05.198Z,51.76
2023-05-12T21:28:07.983Z,52.20
2023-05-12T21:33:11.113Z,52.93
2023-05-12T21:38:13.923Z,53.13
2023-05-12T21:43:16.741Z,53.41
2023-05-12T21:48:19.583Z,54.19
2023-05-12T21:53:22.316Z,54.46
2023-05-12T21:58:25.281Z,55.26
2023-05-12T22:03:28.202Z,55.38
2023-05-12T22:08:31.001Z,56.63
2023-05-12T22:13:33.800Z,56.90
2023-05-12T22:18:37.772Z,56.33
2023-05-12T22:23:42.186Z,56.29
2023-05-12T22:28:45.012Z,56.87
2023-05-12T22:33:47.855Z,56.18
2023-05-12T22:38:50.624Z,56.62
2023-05-12T22:43:53.846Z,57.36
2023-05-12T22:48:58.012Z,57.65
2023-05-12T22:54:00.834Z,57.86
2023-05-12T22:59:03.673Z,58.76
2023-05-12T23:04:06.518Z,59.77
2023-05-12T23:09:09.648Z,59.69
2023-05-12T23:14:12.851Z,59.55
2023-05-12T23:19:15.955Z,60.52
2023-05-12T23:24:18.907Z,60.16
2023-05-12T23:29:21.732Z,60.47
2023-05-12T23:34:24.590Z,60.61
2023-05-12T23:39:27.422Z,61.55
2023-05-12T23:44:30.386Z,61.28
2023-05-12T23:49:33.196Z,61.61
2023-05-12T23:54:35.977Z,60.39
2023-05-12T23:59:38.979Z,60.08
